sensor_id;sensor_type;location;lat;lon;timestamp;P1;durP1;ratioP1;P2;durP2;ratioP2
16242;SDS011;11719;51.052;6.982;2023-03-02T00:00:41;6.03;;;3.33;;
16242;SDS011;11719;51.052;6.982;2023-03-02T00:03:09;7.13;;;3.40;;
16242;SDS011;11719;51.052;6.982;2023-03-02T00:05:36;6.77;;;3.20;;
16242;SDS011;11719;51.052;6.982;2023-03-02T00:08:05;3.27;;;2.20;;
16242;SDS011;11719;51.052;6.982;2023-03-02T00:10:33;4.97;;;3.10;;
16242;SDS011;11719;51.052;6.982;2023-03-02T00:12:59;4.93;;;3.33;;
16242;SDS011;11719;51.052;6.982;2023-03-02T00:15:25;4.77;;;2.83;;
16242;SDS011;11719;51.052;6.982;2023-03-02T00:17:51;5.13;;;2.97;;
16242;SDS011;11719;51.052;6.982;2023-03-02T00:20:17;6.93;;;3.60;;
16242;SDS011;11719;51.052;6.982;2023-03-02T00:22:43;6.00;;;2.90;;
16242;SDS011;11719;51.052;6.982;2023-03-02T00:25:11;4.63;;;3.50;;
16242;SDS011;11719;51.052;6.982;2023-03-02T00:27:38;7.13;;;3.50;;
16242;SDS011;11719;51.052;6.982;2023-03-02T00:30:05;6.10;;;3.40;;
16242;SDS011;11719;51.052;6.982;2023-03-02T00:32:32;4.50;;;2.60;;
16242;SDS011;11719;51.052;6.982;2023-03-02T00:34:59;4.50;;;2.67;;
16242;SDS011;11719;51.052;6.982;2023-03-02T00:37:24;5.07;;;3.03;;
16242;SDS011;11719;51.052;6.982;2023-03-02T00:39:51;5.73;;;2.63;;
16242;SDS011;11719;51.052;6.982;2023-03-02T00:42:17;5.33;;;3.03;;
16242;SDS011;11719;51.052;6.982;2023-03-02T00:44:44;4.33;;;2.80;;
16242;SDS011;11719;51.052;6.982;2023-03-02T00:47:10;7.13;;;3.20;;
16242;SDS011;11719;51.052;6.982;2023-03-02T00:49:36;5.03;;;2.77;;
16242;SDS011;11719;51.052;6.982;2023-03-02T00:52:02;6.03;;;2.93;;
16242;SDS011;11719;51.052;6.982;2023-03-02T00:54:29;5.60;;;3.57;;
16242;SDS011;11719;51.052;6.982;2023-03-02T00:56:55;4.90;;;2.80;;
16242;SDS011;11719;51.052;6.982;2023-03-02T00:59:21;8.33;;;2.90;;
16242;SDS011;11719;51.052;6.982;2023-03-02T01:01:54;5.47;;;2.97;;
16242;SDS011;11719;51.052;6.982;2023-03-02T01:04:24;3.70;;;2.67;;
16242;SDS011;11719;51.052;6.982;2023-03-02T01:07:03;3.93;;;2.83;;
16242;SDS011;11719;51.052;6.982;2023-03-02T01:09:32;4.97;;;2.50;;
16242;SDS011;11719;51.052;6.982;2023-03-02T01:11:58;6.57;;;3.07;;
16242;SDS011;11719;51.052;6.982;2023-03-02T01:14:24;4.47;;;2.13;;
16242;SDS011;11719;51.052;6.982;2023-03-02T01:16:50;9.83;;;3.73;;
16242;SDS011;11719;51.052;6.982;2023-03-02T01:19:17;6.50;;;3.17;;
16242;SDS011;11719;51.052;6.982;2023-03-02T01:21:43;7.53;;;3.63;;
16242;SDS011;11719;51.052;6.982;2023-03-02T01:24:09;6.80;;;3.03;;
16242;SDS011;11719;51.052;6.982;2023-03-02T01:26:35;7.67;;;2.93;;
16242;SDS011;11719;51.052;6.982;2023-03-02T01:29:01;5.10;;;2.63;;
16242;SDS011;11719;51.052;6.982;2023-03-02T01:31:29;4.97;;;2.40;;
16242;SDS011;11719;51.052;6.982;2023-03-02T01:33:55;5.43;;;2.63;;
16242;SDS011;11719;51.052;6.982;2023-03-02T01:36:21;7.07;;;3.57;;
16242;SDS011;11719;51.052;6.982;2023-03-02T01:38:48;3.67;;;2.07;;
16242;SDS011;11719;51.052;6.982;2023-03-02T01:44:56;3.90;;;1.97;;
16242;SDS011;11719;51.052;6.982;2023-03-02T01:47:31;5.23;;;3.10;;
16242;SDS011;11719;51.052;6.982;2023-03-02T01:50:16;3.07;;;2.20;;
16242;SDS011;11719;51.052;6.982;2023-03-02T01:52:46;5.27;;;2.87;;
16242;SDS011;11719;51.052;6.982;2023-03-02T01:55:14;9.47;;;2.57;;
16242;SDS011;11719;51.052;6.982;2023-03-02T01:57:46;6.73;;;2.73;;
16242;SDS011;11719;51.052;6.982;2023-03-02T02:00:17;4.80;;;2.50;;
16242;SDS011;11719;51.052;6.982;2023-03-02T02:02:49;6.17;;;2.80;;
16242;SDS011;11719;51.052;6.982;2023-03-02T02:05:18;7.27;;;2.27;;
16242;SDS011;11719;51.052;6.982;2023-03-02T02:10:21;5.73;;;3.20;;
16242;SDS011;11719;51.052;6.982;2023-03-02T02:12:47;4.07;;;2.80;;
16242;SDS011;11719;51.052;6.982;2023-03-02T02:15:12;7.13;;;3.23;;
16242;SDS011;11719;51.052;6.982;2023-03-02T02:17:38;3.10;;;1.97;;
16242;SDS011;11719;51.052;6.982;2023-03-02T02:20:22;6.93;;;3.30;;
16242;SDS011;11719;51.052;6.982;2023-03-02T02:37:23;5.13;;;2.73;;
16242;SDS011;11719;51.052;6.982;2023-03-02T02:40:04;3.63;;;2.60;;
16242;SDS011;11719;51.052;6.982;2023-03-02T02:42:38;2.03;;;1.83;;
16242;SDS011;11719;51.052;6.982;2023-03-02T02:45:30;5.10;;;2.73;;
16242;SDS011;11719;51.052;6.982;2023-03-02T02:47:55;3.97;;;2.57;;
16242;SDS011;11719;51.052;6.982;2023-03-02T02:50:23;3.33;;;2.40;;
16242;SDS011;11719;51.052;6.982;2023-03-02T02:52:59;4.27;;;2.77;;
16242;SDS011;11719;51.052;6.982;2023-03-02T02:55:37;5.00;;;3.13;;
16242;SDS011;11719;51.052;6.982;2023-03-02T02:58:14;3.67;;;2.33;;
16242;SDS011;11719;51.052;6.982;2023-03-02T03:00:49;5.67;;;2.70;;
16242;SDS011;11719;51.052;6.982;2023-03-02T03:03:26;4.30;;;2.07;;
16242;SDS011;11719;51.052;6.982;2023-03-02T03:06:02;4.77;;;2.87;;
16242;SDS011;11719;51.052;6.982;2023-03-02T03:11:12;6.00;;;2.97;;
16242;SDS011;11719;51.052;6.982;2023-03-02T03:13:43;8.83;;;3.90;;
16242;SDS011;11719;51.052;6.982;2023-03-02T03:16:12;4.67;;;2.20;;
16242;SDS011;11719;51.052;6.982;2023-03-02T03:18:41;4.70;;;3.03;;
16242;SDS011;11719;51.052;6.982;2023-03-02T03:21:09;6.57;;;3.67;;
16242;SDS011;11719;51.052;6.982;2023-03-02T03:23:35;4.83;;;2.40;;
16242;SDS011;11719;51.052;6.982;2023-03-02T03:26:02;4.60;;;2.20;;
16242;SDS011;11719;51.052;6.982;2023-03-02T03:28:29;3.53;;;1.73;;
16242;SDS011;11719;51.052;6.982;2023-03-02T03:30:56;3.03;;;1.83;;
16242;SDS011;11719;51.052;6.982;2023-03-02T03:33:22;3.23;;;2.27;;
16242;SDS011;11719;51.052;6.982;2023-03-02T03:35:48;4.13;;;2.10;;
16242;SDS011;11719;51.052;6.982;2023-03-02T03:38:14;4.77;;;2.33;;
16242;SDS011;11719;51.052;6.982;2023-03-02T03:40:41;6.00;;;2.43;;
16242;SDS011;11719;51.052;6.982;2023-03-02T03:43:07;6.00;;;2.20;;
16242;SDS011;11719;51.052;6.982;2023-03-02T03:45:33;4.50;;;2.13;;
16242;SDS011;11719;51.052;6.982;2023-03-02T03:47:59;3.67;;;2.90;;
16242;SDS011;11719;51.052;6.982;2023-03-02T03:50:25;3.93;;;2.23;;
16242;SDS011;11719;51.052;6.982;2023-03-02T03:52:51;4.67;;;2.37;;
16242;SDS011;11719;51.052;6.982;2023-03-02T03:55:17;3.10;;;2.30;;
16242;SDS011;11719;51.052;6.982;2023-03-02T03:57:43;6.50;;;3.37;;
16242;SDS011;11719;51.052;6.982;2023-03-02T04:00:10;4.97;;;2.77;;
16242;SDS011;11719;51.052;6.982;2023-03-02T04:02:41;3.10;;;1.83;;
16242;SDS011;11719;51.052;6.982;2023-03-02T04:05:07;3.30;;;2.30;;
16242;SDS011;11719;51.052;6.982;2023-03-02T04:07:34;5.80;;;2.13;;
16242;SDS011;11719;51.052;6.982;2023-03-02T04:10:02;3.70;;;1.73;;
16242;SDS011;11719;51.052;6.982;2023-03-02T04:12:30;8.20;;;3.00;;
16242;SDS011;11719;51.052;6.982;2023-03-02T04:15:02;5.67;;;3.13;;
16242;SDS011;11719;51.052;6.982;2023-03-02T04:17:30;2.77;;;2.40;;
16242;SDS011;11719;51.052;6.982;2023-03-02T04:19:56;5.17;;;3.00;;
16242;SDS011;11719;51.052;6.982;2023-03-02T04:22:23;4.70;;;2.57;;
16242;SDS011;11719;51.052;6.982;2023-03-02T04:24:50;7.43;;;2.97;;
16242;SDS011;11719;51.052;6.982;2023-03-02T04:27:16;2.43;;;1.80;;
16242;SDS011;11719;51.052;6.982;2023-03-02T04:29:43;4.23;;;2.70;;
16242;SDS011;11719;51.052;6.982;2023-03-02T04:32:09;5.20;;;2.40;;
16242;SDS011;11719;51.052;6.982;2023-03-02T04:34:38;5.77;;;2.57;;
16242;SDS011;11719;51.052;6.982;2023-03-02T04:37:04;5.13;;;2.43;;
16242;SDS011;11719;51.052;6.982;2023-03-02T04:39:31;5.40;;;3.03;;
16242;SDS011;11719;51.052;6.982;2023-03-02T04:41:57;5.90;;;2.93;;
16242;SDS011;11719;51.052;6.982;2023-03-02T04:44:22;4.23;;;2.37;;
16242;SDS011;11719;51.052;6.982;2023-03-02T04:46:48;3.10;;;2.17;;
16242;SDS011;11719;51.052;6.982;2023-03-02T04:49:15;4.23;;;2.73;;
16242;SDS011;11719;51.052;6.982;2023-03-02T04:51:44;5.17;;;2.50;;
16242;SDS011;11719;51.052;6.982;2023-03-02T04:54:13;5.07;;;2.87;;
16242;SDS011;11719;51.052;6.982;2023-03-02T04:56:45;4.00;;;2.23;;
16242;SDS011;11719;51.052;6.982;2023-03-02T04:59:15;4.10;;;2.33;;
16242;SDS011;11719;51.052;6.982;2023-03-02T05:01:44;7.00;;;2.23;;
16242;SDS011;11719;51.052;6.982;2023-03-02T05:04:11;6.30;;;3.17;;
16242;SDS011;11719;51.052;6.982;2023-03-02T05:06:37;9.87;;;2.97;;
16242;SDS011;11719;51.052;6.982;2023-03-02T05:09:04;10.10;;;3.17;;
16242;SDS011;11719;51.052;6.982;2023-03-02T05:11:30;5.83;;;2.63;;
16242;SDS011;11719;51.052;6.982;2023-03-02T05:13:58;4.57;;;2.57;;
16242;SDS011;11719;51.052;6.982;2023-03-02T05:16:28;5.33;;;2.37;;
16242;SDS011;11719;51.052;6.982;2023-03-02T05:18:57;8.67;;;2.93;;
16242;SDS011;11719;51.052;6.982;2023-03-02T05:21:24;6.23;;;2.53;;
16242;SDS011;11719;51.052;6.982;2023-03-02T05:23:50;4.50;;;3.17;;
16242;SDS011;11719;51.052;6.982;2023-03-02T05:26:16;5.87;;;3.27;;
16242;SDS011;11719;51.052;6.982;2023-03-02T05:28:42;5.33;;;2.43;;
16242;SDS011;11719;51.052;6.982;2023-03-02T05:31:11;6.23;;;3.17;;
16242;SDS011;11719;51.052;6.982;2023-03-02T05:33:47;10.50;;;2.33;;
16242;SDS011;11719;51.052;6.982;2023-03-02T05:36:13;5.10;;;2.87;;
16242;SDS011;11719;51.052;6.982;2023-03-02T05:38:40;5.37;;;2.50;;
16242;SDS011;11719;51.052;6.982;2023-03-02T05:41:06;3.77;;;2.70;;
16242;SDS011;11719;51.052;6.982;2023-03-02T05:43:32;4.50;;;2.50;;
16242;SDS011;11719;51.052;6.982;2023-03-02T05:45:58;4.43;;;1.93;;
16242;SDS011;11719;51.052;6.982;2023-03-02T05:48:28;4.60;;;3.27;;
16242;SDS011;11719;51.052;6.982;2023-03-02T05:50:54;9.77;;;2.30;;
16242;SDS011;11719;51.052;6.982;2023-03-02T05:53:21;3.37;;;2.47;;
16242;SDS011;11719;51.052;6.982;2023-03-02T05:55:48;5.10;;;2.00;;
16242;SDS011;11719;51.052;6.982;2023-03-02T05:58:15;6.70;;;2.63;;
16242;SDS011;11719;51.052;6.982;2023-03-02T06:00:43;4.07;;;1.97;;
16242;SDS011;11719;51.052;6.982;2023-03-02T06:03:10;5.13;;;2.57;;
16242;SDS011;11719;51.052;6.982;2023-03-02T06:05:36;3.37;;;1.60;;
16242;SDS011;11719;51.052;6.982;2023-03-02T06:08:03;5.10;;;2.00;;
16242;SDS011;11719;51.052;6.982;2023-03-02T06:10:29;5.40;;;2.70;;
16242;SDS011;11719;51.052;6.982;2023-03-02T06:12:55;4.60;;;2.70;;
16242;SDS011;11719;51.052;6.982;2023-03-02T06:15:21;3.80;;;2.40;;
16242;SDS011;11719;51.052;6.982;2023-03-02T06:17:48;5.53;;;3.37;;
16242;SDS011;11719;51.052;6.982;2023-03-02T06:20:14;4.37;;;2.43;;
16242;SDS011;11719;51.052;6.982;2023-03-02T06:22:41;11.60;;;2.47;;
16242;SDS011;11719;51.052;6.982;2023-03-02T06:25:19;7.27;;;3.80;;
16242;SDS011;11719;51.052;6.982;2023-03-02T06:27:47;4.73;;;2.30;;
16242;SDS011;11719;51.052;6.982;2023-03-02T06:30:16;7.07;;;2.60;;
16242;SDS011;11719;51.052;6.982;2023-03-02T06:32:45;8.00;;;2.83;;
16242;SDS011;11719;51.052;6.982;2023-03-02T06:35:11;5.90;;;3.07;;
16242;SDS011;11719;51.052;6.982;2023-03-02T06:37:37;7.60;;;3.17;;
16242;SDS011;11719;51.052;6.982;2023-03-02T06:40:04;5.77;;;2.43;;
16242;SDS011;11719;51.052;6.982;2023-03-02T06:42:35;11.43;;;2.77;;
16242;SDS011;11719;51.052;6.982;2023-03-02T06:45:02;5.17;;;3.17;;
16242;SDS011;11719;51.052;6.982;2023-03-02T06:47:29;3.30;;;1.83;;
16242;SDS011;11719;51.052;6.982;2023-03-02T06:49:57;3.80;;;2.83;;
16242;SDS011;11719;51.052;6.982;2023-03-02T06:52:23;3.80;;;1.87;;
16242;SDS011;11719;51.052;6.982;2023-03-02T06:54:51;12.40;;;2.80;;
16242;SDS011;11719;51.052;6.982;2023-03-02T06:57:18;5.70;;;3.03;;
16242;SDS011;11719;51.052;6.982;2023-03-02T06:59:44;7.67;;;3.00;;
16242;SDS011;11719;51.052;6.982;2023-03-02T07:02:10;3.73;;;2.00;;
16242;SDS011;11719;51.052;6.982;2023-03-02T07:04:35;3.97;;;2.73;;
16242;SDS011;11719;51.052;6.982;2023-03-02T07:07:01;4.73;;;2.50;;
16242;SDS011;11719;51.052;6.982;2023-03-02T07:09:27;4.27;;;2.30;;
16242;SDS011;11719;51.052;6.982;2023-03-02T07:11:55;6.80;;;2.60;;
16242;SDS011;11719;51.052;6.982;2023-03-02T07:14:21;4.97;;;3.20;;
16242;SDS011;11719;51.052;6.982;2023-03-02T07:16:47;3.90;;;2.73;;
16242;SDS011;11719;51.052;6.982;2023-03-02T07:19:12;6.40;;;2.43;;
16242;SDS011;11719;51.052;6.982;2023-03-02T07:21:38;2.50;;;1.77;;
16242;SDS011;11719;51.052;6.982;2023-03-02T07:24:05;5.10;;;2.60;;
16242;SDS011;11719;51.052;6.982;2023-03-02T07:26:31;3.00;;;1.90;;
16242;SDS011;11719;51.052;6.982;2023-03-02T07:28:57;5.83;;;3.23;;
16242;SDS011;11719;51.052;6.982;2023-03-02T07:31:26;4.10;;;2.30;;
16242;SDS011;11719;51.052;6.982;2023-03-02T07:33:52;6.57;;;2.47;;
16242;SDS011;11719;51.052;6.982;2023-03-02T07:36:18;4.07;;;2.73;;
16242;SDS011;11719;51.052;6.982;2023-03-02T07:38:43;4.07;;;1.73;;
16242;SDS011;11719;51.052;6.982;2023-03-02T07:41:09;3.73;;;2.20;;
16242;SDS011;11719;51.052;6.982;2023-03-02T07:43:36;4.73;;;2.80;;
16242;SDS011;11719;51.052;6.982;2023-03-02T07:46:03;4.90;;;2.50;;
16242;SDS011;11719;51.052;6.982;2023-03-02T07:48:30;4.50;;;2.47;;
16242;SDS011;11719;51.052;6.982;2023-03-02T07:50:59;4.10;;;2.90;;
16242;SDS011;11719;51.052;6.982;2023-03-02T07:53:27;3.90;;;1.83;;
16242;SDS011;11719;51.052;6.982;2023-03-02T07:55:54;6.23;;;2.60;;
16242;SDS011;11719;51.052;6.982;2023-03-02T07:58:20;3.50;;;2.30;;
16242;SDS011;11719;51.052;6.982;2023-03-02T08:00:47;5.03;;;2.70;;
16242;SDS011;11719;51.052;6.982;2023-03-02T08:03:13;14.33;;;3.40;;
16242;SDS011;11719;51.052;6.982;2023-03-02T08:05:39;3.77;;;2.73;;
16242;SDS011;11719;51.052;6.982;2023-03-02T08:10:36;5.33;;;3.60;;
16242;SDS011;11719;51.052;6.982;2023-03-02T08:13:03;6.77;;;3.87;;
16242;SDS011;11719;51.052;6.982;2023-03-02T08:15:29;8.03;;;4.13;;
16242;SDS011;11719;51.052;6.982;2023-03-02T08:17:55;5.83;;;2.33;;
16242;SDS011;11719;51.052;6.982;2023-03-02T08:20:21;4.90;;;2.97;;
16242;SDS011;11719;51.052;6.982;2023-03-02T08:22:47;7.80;;;3.13;;
16242;SDS011;11719;51.052;6.982;2023-03-02T08:25:12;6.17;;;3.40;;
16242;SDS011;11719;51.052;6.982;2023-03-02T08:27:38;11.90;;;4.00;;
16242;SDS011;11719;51.052;6.982;2023-03-02T08:30:05;3.00;;;2.10;;
16242;SDS011;11719;51.052;6.982;2023-03-02T08:32:32;5.53;;;3.33;;
16242;SDS011;11719;51.052;6.982;2023-03-02T08:34:58;3.30;;;1.53;;
16242;SDS011;11719;51.052;6.982;2023-03-02T08:37:24;2.30;;;1.57;;
16242;SDS011;11719;51.052;6.982;2023-03-02T08:39:50;4.73;;;3.20;;
16242;SDS011;11719;51.052;6.982;2023-03-02T08:42:16;8.37;;;3.80;;
16242;SDS011;11719;51.052;6.982;2023-03-02T08:44:42;1.90;;;1.60;;
16242;SDS011;11719;51.052;6.982;2023-03-02T08:47:08;2.87;;;1.57;;
16242;SDS011;11719;51.052;6.982;2023-03-02T08:49:34;5.87;;;2.90;;
16242;SDS011;11719;51.052;6.982;2023-03-02T08:52:02;4.83;;;1.60;;
16242;SDS011;11719;51.052;6.982;2023-03-02T08:54:28;5.53;;;3.33;;
16242;SDS011;11719;51.052;6.982;2023-03-02T08:56:55;9.07;;;2.87;;
16242;SDS011;11719;51.052;6.982;2023-03-02T08:59:20;5.07;;;2.73;;
16242;SDS011;11719;51.052;6.982;2023-03-02T09:01:46;6.47;;;3.20;;
16242;SDS011;11719;51.052;6.982;2023-03-02T09:04:13;6.30;;;2.43;;
16242;SDS011;11719;51.052;6.982;2023-03-02T09:06:39;4.70;;;2.57;;
16242;SDS011;11719;51.052;6.982;2023-03-02T09:09:08;5.07;;;2.70;;
16242;SDS011;11719;51.052;6.982;2023-03-02T09:11:36;7.50;;;3.17;;
16242;SDS011;11719;51.052;6.982;2023-03-02T09:14:03;8.53;;;3.20;;
16242;SDS011;11719;51.052;6.982;2023-03-02T09:16:29;6.90;;;3.03;;
16242;SDS011;11719;51.052;6.982;2023-03-02T09:18:55;7.87;;;3.40;;
16242;SDS011;11719;51.052;6.982;2023-03-02T09:21:21;6.63;;;3.60;;
16242;SDS011;11719;51.052;6.982;2023-03-02T09:23:48;6.20;;;2.80;;
16242;SDS011;11719;51.052;6.982;2023-03-02T09:26:17;6.10;;;3.00;;
16242;SDS011;11719;51.052;6.982;2023-03-02T09:28:44;4.40;;;2.40;;
16242;SDS011;11719;51.052;6.982;2023-03-02T09:31:10;3.87;;;2.80;;
16242;SDS011;11719;51.052;6.982;2023-03-02T09:33:36;3.93;;;2.10;;
16242;SDS011;11719;51.052;6.982;2023-03-02T09:36:08;6.37;;;3.30;;
16242;SDS011;11719;51.052;6.982;2023-03-02T09:38:36;5.57;;;2.90;;
16242;SDS011;11719;51.052;6.982;2023-03-02T09:46:59;4.63;;;3.03;;
16242;SDS011;11719;51.052;6.982;2023-03-02T09:52:29;4.07;;;2.87;;
16242;SDS011;11719;51.052;6.982;2023-03-02T09:55:22;4.83;;;2.93;;
16242;SDS011;11719;51.052;6.982;2023-03-02T09:57:53;5.00;;;2.87;;
16242;SDS011;11719;51.052;6.982;2023-03-02T10:00:27;3.90;;;1.40;;
16242;SDS011;11719;51.052;6.982;2023-03-02T10:03:00;1.80;;;1.17;;
16242;SDS011;11719;51.052;6.982;2023-03-02T10:05:37;6.73;;;3.07;;
16242;SDS011;11719;51.052;6.982;2023-03-02T10:08:10;5.50;;;3.13;;
16242;SDS011;11719;51.052;6.982;2023-03-02T10:13:50;5.60;;;3.07;;
16242;SDS011;11719;51.052;6.982;2023-03-02T10:22:11;5.03;;;2.43;;
16242;SDS011;11719;51.052;6.982;2023-03-02T10:28:01;5.53;;;3.33;;
16242;SDS011;11719;51.052;6.982;2023-03-02T10:30:52;4.23;;;2.90;;
16242;SDS011;11719;51.052;6.982;2023-03-02T10:33:37;5.37;;;2.70;;
16242;SDS011;11719;51.052;6.982;2023-03-02T10:36:11;7.80;;;3.70;;
16242;SDS011;11719;51.052;6.982;2023-03-02T10:38:46;5.83;;;2.50;;
16242;SDS011;11719;51.052;6.982;2023-03-02T10:41:14;5.40;;;3.20;;
16242;SDS011;11719;51.052;6.982;2023-03-02T10:44:14;5.90;;;2.97;;
16242;SDS011;11719;51.052;6.982;2023-03-02T10:46:48;7.30;;;2.90;;
16242;SDS011;11719;51.052;6.982;2023-03-02T10:49:31;6.37;;;2.80;;
16242;SDS011;11719;51.052;6.982;2023-03-02T10:52:00;8.47;;;2.63;;
16242;SDS011;11719;51.052;6.982;2023-03-02T10:54:32;5.10;;;3.07;;
16242;SDS011;11719;51.052;6.982;2023-03-02T10:57:00;6.53;;;3.27;;
16242;SDS011;11719;51.052;6.982;2023-03-02T10:59:40;7.93;;;3.17;;
16242;SDS011;11719;51.052;6.982;2023-03-02T11:04:55;5.17;;;2.53;;
16242;SDS011;11719;51.052;6.982;2023-03-02T11:07:26;7.20;;;3.27;;
16242;SDS011;11719;51.052;6.982;2023-03-02T11:09:57;4.97;;;2.60;;
16242;SDS011;11719;51.052;6.982;2023-03-02T11:12:32;6.03;;;2.83;;
16242;SDS011;11719;51.052;6.982;2023-03-02T11:15:10;5.77;;;3.20;;
16242;SDS011;11719;51.052;6.982;2023-03-02T11:20:55;4.50;;;2.50;;
16242;SDS011;11719;51.052;6.982;2023-03-02T11:31:42;7.03;;;2.97;;
16242;SDS011;11719;51.052;6.982;2023-03-02T11:43:05;4.67;;;1.80;;
16242;SDS011;11719;51.052;6.982;2023-03-02T11:45:35;5.73;;;2.70;;
16242;SDS011;11719;51.052;6.982;2023-03-02T11:48:11;4.80;;;2.70;;
16242;SDS011;11719;51.052;6.982;2023-03-02T11:54:02;5.10;;;2.90;;
16242;SDS011;11719;51.052;6.982;2023-03-02T11:56:37;4.67;;;2.77;;
16242;SDS011;11719;51.052;6.982;2023-03-02T11:59:05;4.13;;;2.70;;
16242;SDS011;11719;51.052;6.982;2023-03-02T12:01:40;5.03;;;2.70;;
16242;SDS011;11719;51.052;6.982;2023-03-02T12:04:24;6.87;;;3.33;;
16242;SDS011;11719;51.052;6.982;2023-03-02T12:06:58;7.47;;;2.97;;
16242;SDS011;11719;51.052;6.982;2023-03-02T12:10:25;4.00;;;2.90;;
16242;SDS011;11719;51.052;6.982;2023-03-02T12:13:20;6.00;;;3.23;;
16242;SDS011;11719;51.052;6.982;2023-03-02T12:15:51;5.80;;;2.90;;
16242;SDS011;11719;51.052;6.982;2023-03-02T12:23:40;4.13;;;2.83;;
16242;SDS011;11719;51.052;6.982;2023-03-02T12:37:20;3.67;;;2.07;;
16242;SDS011;11719;51.052;6.982;2023-03-02T12:40:02;3.93;;;2.17;;
16242;SDS011;11719;51.052;6.982;2023-03-02T12:43:26;4.87;;;1.90;;
16242;SDS011;11719;51.052;6.982;2023-03-02T12:52:26;5.13;;;3.10;;
16242;SDS011;11719;51.052;6.982;2023-03-02T12:54:59;6.03;;;2.73;;
16242;SDS011;11719;51.052;6.982;2023-03-02T12:57:50;2.27;;;1.13;;
16242;SDS011;11719;51.052;6.982;2023-03-02T13:00:32;4.23;;;1.70;;
16242;SDS011;11719;51.052;6.982;2023-03-02T13:02:59;4.73;;;2.43;;
16242;SDS011;11719;51.052;6.982;2023-03-02T13:07:58;4.50;;;2.80;;
16242;SDS011;11719;51.052;6.982;2023-03-02T13:10:37;4.40;;;1.83;;
16242;SDS011;11719;51.052;6.982;2023-03-02T13:13:17;2.70;;;1.50;;
16242;SDS011;11719;51.052;6.982;2023-03-02T13:18:57;2.77;;;1.50;;
16242;SDS011;11719;51.052;6.982;2023-03-02T13:21:31;2.23;;;1.30;;
16242;SDS011;11719;51.052;6.982;2023-03-02T13:24:01;4.20;;;1.47;;
16242;SDS011;11719;51.052;6.982;2023-03-02T13:26:29;2.53;;;1.47;;
16242;SDS011;11719;51.052;6.982;2023-03-02T13:28:59;3.83;;;1.90;;
16242;SDS011;11719;51.052;6.982;2023-03-02T13:31:28;4.27;;;2.40;;
16242;SDS011;11719;51.052;6.982;2023-03-02T13:33:55;1.23;;;1.13;;
16242;SDS011;11719;51.052;6.982;2023-03-02T13:36:32;4.77;;;2.90;;
16242;SDS011;11719;51.052;6.982;2023-03-02T13:39:02;2.97;;;1.30;;
16242;SDS011;11719;51.052;6.982;2023-03-02T13:41:32;3.30;;;1.60;;
16242;SDS011;11719;51.052;6.982;2023-03-02T13:44:10;2.90;;;1.97;;
16242;SDS011;11719;51.052;6.982;2023-03-02T13:46:45;4.00;;;1.20;;
16242;SDS011;11719;51.052;6.982;2023-03-02T13:49:13;2.87;;;1.53;;
16242;SDS011;11719;51.052;6.982;2023-03-02T13:51:55;2.30;;;1.37;;
16242;SDS011;11719;51.052;6.982;2023-03-02T13:54:35;4.17;;;2.13;;
16242;SDS011;11719;51.052;6.982;2023-03-02T13:57:02;2.97;;;1.20;;
16242;SDS011;11719;51.052;6.982;2023-03-02T13:59:30;3.30;;;2.60;;
16242;SDS011;11719;51.052;6.982;2023-03-02T14:01:58;4.03;;;1.90;;
16242;SDS011;11719;51.052;6.982;2023-03-02T14:04:25;4.43;;;2.20;;
16242;SDS011;11719;51.052;6.982;2023-03-02T14:06:51;2.77;;;1.43;;
16242;SDS011;11719;51.052;6.982;2023-03-02T14:09:19;2.67;;;1.20;;
16242;SDS011;11719;51.052;6.982;2023-03-02T14:11:51;3.27;;;2.30;;
16242;SDS011;11719;51.052;6.982;2023-03-02T14:14:20;1.40;;;0.87;;
16242;SDS011;11719;51.052;6.982;2023-03-02T14:16:49;2.57;;;1.63;;
16242;SDS011;11719;51.052;6.982;2023-03-02T14:19:16;2.53;;;1.50;;
16242;SDS011;11719;51.052;6.982;2023-03-02T14:21:42;5.07;;;1.83;;
16242;SDS011;11719;51.052;6.982;2023-03-02T14:24:09;4.60;;;2.20;;
16242;SDS011;11719;51.052;6.982;2023-03-02T14:26:37;2.70;;;1.30;;
16242;SDS011;11719;51.052;6.982;2023-03-02T14:31:53;1.27;;;0.80;;
16242;SDS011;11719;51.052;6.982;2023-03-02T14:34:20;3.37;;;1.90;;
16242;SDS011;11719;51.052;6.982;2023-03-02T14:36:48;1.53;;;1.13;;
16242;SDS011;11719;51.052;6.982;2023-03-02T14:39:23;1.17;;;0.70;;
16242;SDS011;11719;51.052;6.982;2023-03-02T14:41:51;1.80;;;1.00;;
16242;SDS011;11719;51.052;6.982;2023-03-02T14:44:18;1.60;;;1.00;;
16242;SDS011;11719;51.052;6.982;2023-03-02T14:46:44;1.93;;;0.77;;
16242;SDS011;11719;51.052;6.982;2023-03-02T14:49:10;2.27;;;1.27;;
16242;SDS011;11719;51.052;6.982;2023-03-02T14:51:35;1.20;;;0.90;;
16242;SDS011;11719;51.052;6.982;2023-03-02T14:54:05;1.20;;;0.77;;
16242;SDS011;11719;51.052;6.982;2023-03-02T14:56:38;1.30;;;0.70;;
16242;SDS011;11719;51.052;6.982;2023-03-02T14:59:07;2.77;;;1.37;;
16242;SDS011;11719;51.052;6.982;2023-03-02T15:01:36;1.07;;;0.83;;
16242;SDS011;11719;51.052;6.982;2023-03-02T15:04:03;2.43;;;1.47;;
16242;SDS011;11719;51.052;6.982;2023-03-02T15:06:29;3.43;;;1.73;;
16242;SDS011;11719;51.052;6.982;2023-03-02T15:08:59;1.80;;;1.00;;
16242;SDS011;11719;51.052;6.982;2023-03-02T15:11:26;1.30;;;1.10;;
16242;SDS011;11719;51.052;6.982;2023-03-02T15:13:53;2.30;;;1.47;;
16242;SDS011;11719;51.052;6.982;2023-03-02T15:16:19;2.70;;;1.60;;
16242;SDS011;11719;51.052;6.982;2023-03-02T15:18:52;1.40;;;0.70;;
16242;SDS011;11719;51.052;6.982;2023-03-02T15:21:19;1.83;;;0.83;;
16242;SDS011;11719;51.052;6.982;2023-03-02T15:23:47;1.47;;;1.03;;
16242;SDS011;11719;51.052;6.982;2023-03-02T15:26:15;2.73;;;1.00;;
16242;SDS011;11719;51.052;6.982;2023-03-02T15:28:41;2.47;;;1.00;;
16242;SDS011;11719;51.052;6.982;2023-03-02T15:31:10;0.67;;;0.53;;
16242;SDS011;11719;51.052;6.982;2023-03-02T15:33:39;1.07;;;0.70;;
16242;SDS011;11719;51.052;6.982;2023-03-02T15:36:05;2.63;;;1.20;;
16242;SDS011;11719;51.052;6.982;2023-03-02T15:38:32;1.07;;;0.50;;
16242;SDS011;11719;51.052;6.982;2023-03-02T15:41:06;1.07;;;0.63;;
16242;SDS011;11719;51.052;6.982;2023-03-02T15:43:37;1.77;;;0.70;;
16242;SDS011;11719;51.052;6.982;2023-03-02T15:46:06;1.97;;;1.00;;
16242;SDS011;11719;51.052;6.982;2023-03-02T15:48:33;3.33;;;1.33;;
16242;SDS011;11719;51.052;6.982;2023-03-02T15:51:01;1.77;;;0.83;;
16242;SDS011;11719;51.052;6.982;2023-03-02T15:53:31;0.93;;;0.50;;
16242;SDS011;11719;51.052;6.982;2023-03-02T15:56:02;2.10;;;1.70;;
16242;SDS011;11719;51.052;6.982;2023-03-02T15:58:33;0.90;;;0.80;;
16242;SDS011;11719;51.052;6.982;2023-03-02T16:00:59;1.33;;;0.73;;
16242;SDS011;11719;51.052;6.982;2023-03-02T16:03:31;1.20;;;0.67;;
16242;SDS011;11719;51.052;6.982;2023-03-02T16:05:57;2.53;;;1.37;;
16242;SDS011;11719;51.052;6.982;2023-03-02T16:08:23;3.80;;;1.60;;
16242;SDS011;11719;51.052;6.982;2023-03-02T16:10:55;4.63;;;1.63;;
16242;SDS011;11719;51.052;6.982;2023-03-02T16:13:23;2.87;;;1.47;;
16242;SDS011;11719;51.052;6.982;2023-03-02T16:15:49;2.97;;;1.03;;
16242;SDS011;11719;51.052;6.982;2023-03-02T16:18:15;2.77;;;0.80;;
16242;SDS011;11719;51.052;6.982;2023-03-02T16:20:41;3.20;;;0.80;;
16242;SDS011;11719;51.052;6.982;2023-03-02T16:23:06;2.03;;;0.80;;
16242;SDS011;11719;51.052;6.982;2023-03-02T16:25:37;0.97;;;0.70;;
16242;SDS011;11719;51.052;6.982;2023-03-02T16:28:08;2.47;;;1.30;;
16242;SDS011;11719;51.052;6.982;2023-03-02T16:30:35;0.97;;;0.63;;
16242;SDS011;11719;51.052;6.982;2023-03-02T16:33:03;2.70;;;1.40;;
16242;SDS011;11719;51.052;6.982;2023-03-02T16:35:32;3.30;;;1.10;;
16242;SDS011;11719;51.052;6.982;2023-03-02T16:37:59;1.10;;;0.80;;
16242;SDS011;11719;51.052;6.982;2023-03-02T16:40:25;1.00;;;0.70;;
16242;SDS011;11719;51.052;6.982;2023-03-02T16:42:51;1.60;;;0.87;;
16242;SDS011;11719;51.052;6.982;2023-03-02T16:45:18;1.43;;;0.80;;